Time;durP1;ratioP1;P1;durP2;ratioP2;P2;SDS_P1;SDS_P2;PMS_P1;PMS_P2;Temp;Humidity;BMP_temperature;BMP_pressure;BME280_temperature;BME280_humidity;BME280_pressure;Samples;Min_cycle;Max_cycle;Signal;HPM_P1;HPM_P2
2023/07/02 00:01:04;;;;;;;4.05;3.65;;;22.60;52.60;;;;;;4820232;29;20172;-85
2023/07/02 00:03:30;;;;;;;4.47;4.07;;;22.60;52.60;;;;;;4805089;29;20541;-87
2023/07/02 00:05:57;;;;;;;4.22;3.83;;;22.60;52.70;;;;;;4805915;29;20279;-85
2023/07/02 00:08:23;;;;;;;5.25;4.55;;;22.50;52.60;;;;;;4820003;29;20207;-85
2023/07/02 00:10:49;;;;;;;4.57;3.90;;;22.50;52.60;;;;;;4819843;29;20171;-85
2023/07/02 00:13:15;;;;;;;4.00;3.60;;;22.60;52.60;;;;;;4807098;29;20532;-87
2023/07/02 00:15:41;;;;;;;4.28;3.88;;;22.60;52.70;;;;;;4808633;29;20210;-85
2023/07/02 00:18:07;;;;;;;4.63;4.15;;;22.50;52.60;;;;;;4809502;29;20167;-87
2023/07/02 00:20:37;;;;;;;4.03;3.60;;;22.50;52.70;;;;;;4808333;29;20186;-83
2023/07/02 00:23:04;;;;;;;4.05;3.65;;;22.50;52.70;;;;;;4809440;29;20186;-84
2023/07/02 00:25:30;;;;;;;4.20;3.80;;;22.50;52.70;;;;;;4823181;29;20174;-85
2023/07/02 00:27:56;;;;;;;4.18;3.78;;;22.50;52.70;;;;;;4809581;29;20175;-84
2023/07/02 00:30:21;;;;;;;4.07;3.67;;;22.60;52.80;;;;;;4822924;29;20246;-84
2023/07/02 00:32:47;;;;;;;4.47;4.07;;;22.50;52.60;;;;;;4808086;29;20527;-84
2023/07/02 00:35:13;;;;;;;4.15;3.75;;;22.50;52.70;;;;;;4809406;29;20159;-87
2023/07/02 00:37:39;;;;;;;4.40;4.00;;;22.50;52.70;;;;;;4823053;29;20170;-87
2023/07/02 00:40:06;;;;;;;4.43;4.03;;;22.50;52.90;;;;;;4808298;29;20183;-84
2023/07/02 00:42:32;;;;;;;3.97;3.58;;;22.50;52.80;;;;;;4809162;29;20189;-84
2023/07/02 00:45:02;;;;;;;4.13;3.72;;;22.50;52.90;;;;;;4822869;29;20160;-86
2023/07/02 00:47:29;;;;;;;4.47;4.03;;;22.50;52.80;;;;;;4822392;29;20218;-85
2023/07/02 00:49:55;;;;;;;4.30;3.90;;;22.50;52.90;;;;;;4808352;29;20217;-83
2023/07/02 00:52:23;;;;;;;4.95;4.22;;;22.50;52.90;;;;;;4822921;29;20183;-85
2023/07/02 00:54:49;;;;;;;4.47;4.00;;;22.50;53.20;;;;;;4809102;29;20196;-84
2023/07/02 00:57:15;;;;;;;4.70;4.20;;;22.50;53.00;;;;;;4809130;29;20167;-86
2023/07/02 00:59:41;;;;;;;4.38;3.97;;;22.50;52.90;;;;;;4808889;29;20193;-82
2023/07/02 01:02:07;;;;;;;4.00;3.60;;;22.50;53.00;;;;;;4807537;29;20193;-86
2023/07/02 01:04:33;;;;;;;4.50;4.10;;;22.50;53.00;;;;;;4808697;29;20163;-86
2023/07/02 01:06:59;;;;;;;4.10;3.70;;;22.50;53.00;;;;;;4807720;29;20210;-85
2023/07/02 01:09:26;;;;;;;4.22;3.80;;;22.50;53.00;;;;;;4808788;29;20159;-83
2023/07/02 01:11:54;;;;;;;4.60;4.18;;;22.50;53.00;;;;;;4822324;29;20683;-82
2023/07/02 01:14:25;;;;;;;4.07;3.67;;;22.50;53.00;;;;;;4823024;29;20249;-85
2023/07/02 01:16:51;;;;;;;4.65;4.10;;;22.50;53.00;;;;;;4822393;29;20167;-84
2023/07/02 01:19:40;;;;;;;4.65;4.20;;;22.60;53.10;;;;;;4807364;29;20219;-84
2023/07/02 01:22:06;;;;;;;4.05;3.70;;;22.50;53.10;;;;;;4822261;29;20179;-85
2023/07/02 01:24:32;;;;;;;4.40;3.90;;;22.50;53.10;;;;;;4821763;29;20167;-82
2023/07/02 01:27:00;;;;;;;4.35;3.95;;;22.50;53.10;;;;;;4822222;29;20277;-86
2023/07/02 01:29:28;;;;;;;4.13;3.72;;;22.50;53.10;;;;;;4808607;29;20190;-85
2023/07/02 01:31:54;;;;;;;4.30;3.90;;;22.50;53.20;;;;;;4819058;29;20663;-84
2023/07/02 01:34:20;;;;;;;4.20;3.80;;;22.50;53.10;;;;;;4790171;29;20195;-83
2023/07/02 01:36:46;;;;;;;4.55;4.15;;;22.50;53.20;;;;;;4819433;29;20175;-86
2023/07/02 01:39:12;;;;;;;4.43;4.00;;;22.50;53.20;;;;;;4819136;29;20172;-85
2023/07/02 01:41:44;;;;;;;4.60;4.20;;;22.50;53.20;;;;;;4803984;29;20175;-83
2023/07/02 01:44:10;;;;;;;4.18;3.72;;;22.50;53.20;;;;;;4818992;29;20170;-85
2023/07/02 01:46:36;;;;;;;4.45;4.05;;;22.50;53.20;;;;;;4788686;30;20233;-83
2023/07/02 01:49:02;;;;;;;4.40;4.00;;;22.50;53.20;;;;;;4804366;29;20242;-86
2023/07/02 01:51:28;;;;;;;4.07;3.67;;;22.40;53.10;;;;;;4818975;29;20168;-85
2023/07/02 01:53:54;;;;;;;4.50;4.10;;;22.50;53.30;;;;;;4803716;29;20167;-85
2023/07/02 01:56:20;;;;;;;4.30;3.90;;;22.50;53.30;;;;;;4819158;29;20187;-82
2023/07/02 01:58:46;;;;;;;4.22;3.83;;;22.50;53.30;;;;;;4818784;29;20167;-83
2023/07/02 02:01:12;;;;;;;4.65;4.05;;;22.50;53.30;;;;;;4818774;29;20159;-84
2023/07/02 02:03:38;;;;;;;4.38;3.90;;;22.40;53.30;;;;;;4803488;29;20167;-83
2023/07/02 02:06:04;;;;;;;4.47;4.07;;;22.50;53.40;;;;;;4789635;29;20540;-85
2023/07/02 02:08:30;;;;;;;4.35;3.95;;;22.40;53.30;;;;;;4803406;29;20180;-85
2023/07/02 02:10:56;;;;;;;4.93;4.43;;;22.50;53.30;;;;;;4803434;29;20182;-84
2023/07/02 02:13:21;;;;;;;4.88;4.35;;;22.50;53.30;;;;;;4803388;29;20188;-84
2023/07/02 02:15:47;;;;;;;4.93;4.40;;;22.50;53.40;;;;;;4789464;29;20167;-85
2023/07/02 02:18:13;;;;;;;4.18;3.78;;;22.50;53.30;;;;;;4803223;29;20182;-83
2023/07/02 02:20:39;;;;;;;4.75;4.25;;;22.50;53.30;;;;;;4789548;29;20255;-85
2023/07/02 02:23:05;;;;;;;4.40;4.00;;;22.40;53.30;;;;;;4789634;29;20172;-85
2023/07/02 02:25:31;;;;;;;4.65;4.18;;;22.40;53.30;;;;;;4789304;29;20241;-82
2023/07/02 02:27:57;;;;;;;4.60;4.20;;;22.40;53.30;;;;;;4803413;29;20203;-88
2023/07/02 02:30:23;;;;;;;4.40;4.00;;;22.40;53.40;;;;;;4819118;29;20650;-83
2023/07/02 02:32:49;;;;;;;4.32;3.92;;;22.40;53.40;;;;;;4821337;29;20650;-86
2023/07/02 02:35:15;;;;;;;4.13;3.72;;;22.50;53.50;;;;;;4806776;29;20170;-84
2023/07/02 02:37:41;;;;;;;4.32;3.92;;;22.40;53.40;;;;;;4820995;29;20254;-83
2023/07/02 02:40:09;;;;;;;4.10;3.70;;;22.50;53.50;;;;;;4806483;29;20723;-83
2023/07/02 02:42:36;;;;;;;4.85;4.00;;;22.30;53.40;;;;;;4807339;29;20178;-85
2023/07/02 02:45:02;;;;;;;4.25;3.85;;;22.40;53.40;;;;;;4806974;29;20155;-82
2023/07/02 02:47:28;;;;;;;4.88;4.28;;;22.40;53.40;;;;;;4806078;29;20202;-85
2023/07/02 02:49:53;;;;;;;4.43;4.03;;;22.50;53.50;;;;;;4806102;29;20178;-84
2023/07/02 02:52:19;;;;;;;4.75;4.00;;;22.40;53.40;;;;;;4805650;29;20175;-85
2023/07/02 02:54:46;;;;;;;4.18;3.78;;;22.40;53.40;;;;;;4821023;29;20163;-85
2023/07/02 02:57:13;;;;;;;4.50;4.10;;;22.50;53.50;;;;;;4821072;29;20751;-86
2023/07/02 02:59:39;;;;;;;4.63;4.10;;;22.40;54.10;;;;;;4806811;29;20269;-83
2023/07/02 03:02:05;;;;;;;4.35;3.95;;;22.40;53.50;;;;;;4790811;29;20171;-84
2023/07/02 03:04:31;;;;;;;4.40;4.00;;;22.40;53.50;;;;;;4820847;29;20392;-85
2023/07/02 03:06:57;;;;;;;4.53;4.07;;;22.30;54.20;;;;;;4820713;29;20690;-85
2023/07/02 03:09:23;;;;;;;4.60;4.13;;;22.40;53.50;;;;;;4805467;29;20171;-83
2023/07/02 03:11:49;;;;;;;4.75;4.30;;;22.40;53.50;;;;;;4805371;29;20171;-86
2023/07/02 03:14:15;;;;;;;4.20;3.80;;;22.30;53.50;;;;;;4790394;29;20175;-85
2023/07/02 03:16:42;;;;;;;4.40;4.00;;;22.30;53.50;;;;;;4805728;29;20271;-85
2023/07/02 03:19:08;;;;;;;4.30;3.90;;;22.40;53.60;;;;;;4820709;29;20169;-83
2023/07/02 03:21:34;;;;;;;4.70;4.20;;;22.40;53.50;;;;;;4820608;29;20162;-86
2023/07/02 03:24:00;;;;;;;4.70;4.10;;;22.40;53.60;;;;;;4790713;29;20590;-84
2023/07/02 03:26:26;;;;;;;4.57;4.18;;;22.40;53.60;;;;;;4790523;29;20801;-83
2023/07/02 03:28:52;;;;;;;4.78;4.28;;;22.40;53.60;;;;;;4820543;29;20162;-83
2023/07/02 03:31:17;;;;;;;4.57;4.18;;;22.40;53.70;;;;;;4806295;29;20686;-83
2023/07/02 03:33:43;;;;;;;4.55;4.10;;;22.40;53.60;;;;;;4805117;29;20174;-85
2023/07/02 03:36:09;;;;;;;4.30;3.90;;;22.40;53.60;;;;;;4820503;29;20544;-83
2023/07/02 03:38:35;;;;;;;4.43;3.70;;;22.30;53.60;;;;;;4806440;29;20166;-84
2023/07/02 03:41:01;;;;;;;3.75;3.40;;;22.40;53.70;;;;;;4806582;29;20166;-83
2023/07/02 03:43:26;;;;;;;4.68;4.18;;;22.40;53.70;;;;;;4805131;29;20231;-83
2023/07/02 03:45:52;;;;;;;4.30;3.90;;;22.40;53.70;;;;;;4789951;29;20290;-84
2023/07/02 03:48:18;;;;;;;4.40;4.00;;;22.40;53.70;;;;;;4820002;29;20624;-82
2023/07/02 03:50:44;;;;;;;4.38;3.97;;;22.40;53.70;;;;;;4805762;29;20250;-84
2023/07/02 03:53:10;;;;;;;4.50;3.67;;;22.40;53.70;;;;;;4789852;29;20572;-84
2023/07/02 03:55:36;;;;;;;4.22;3.83;;;22.40;53.70;;;;;;4806072;29;20198;-83
2023/07/02 03:58:02;;;;;;;4.15;3.75;;;22.40;53.80;;;;;;4820271;29;20512;-84
2023/07/02 04:00:32;;;;;;;4.25;3.85;;;22.30;53.70;;;;;;4806139;29;20611;-84
2023/07/02 04:02:58;;;;;;;4.28;3.88;;;22.30;53.80;;;;;;4804344;29;20198;-84
2023/07/02 04:05:24;;;;;;;4.28;3.88;;;22.40;53.80;;;;;;4805375;29;20162;-84
2023/07/02 04:07:50;;;;;;;4.07;3.67;;;22.40;53.80;;;;;;4806204;29;20202;-84
2023/07/02 04:10:16;;;;;;;4.10;3.70;;;22.40;53.80;;;;;;4806287;29;20170;-86
2023/07/02 04:12:42;;;;;;;4.10;3.70;;;22.30;53.80;;;;;;4789838;29;20182;-86
2023/07/02 04:15:08;;;;;;;4.63;4.22;;;22.40;53.80;;;;;;4806398;29;20167;-87
2023/07/02 04:17:34;;;;;;;4.50;4.10;;;22.40;54.50;;;;;;4805037;29;20167;-86
2023/07/02 04:20:02;;;;;;;4.50;4.10;;;22.30;53.80;;;;;;4805984;29;20178;-87
2023/07/02 04:22:28;;;;;;;4.43;4.00;;;22.30;53.90;;;;;;4820043;29;20155;-86
2023/07/02 04:24:58;;;;;;;4.30;3.90;;;22.30;53.90;;;;;;4804781;29;20189;-84
2023/07/02 04:27:24;;;;;;;4.10;3.70;;;22.30;53.90;;;;;;4789017;29;20246;-82
2023/07/02 04:29:50;;;;;;;4.45;4.05;;;22.30;53.90;;;;;;4820032;29;20567;-83
2023/07/02 04:32:16;;;;;;;4.20;3.80;;;22.30;54.00;;;;;;4813758;29;20234;-84
2023/07/02 04:34:43;;;;;;;4.50;4.10;;;22.30;54.00;;;;;;4788041;30;20160;-85
2023/07/02 04:37:09;;;;;;;4.40;4.00;;;22.40;54.00;;;;;;4816820;29;20183;-85
2023/07/02 04:39:35;;;;;;;4.00;3.65;;;22.30;54.00;;;;;;4787850;30;20203;-85
2023/07/02 04:42:01;;;;;;;3.80;3.50;;;22.30;54.00;;;;;;4787791;30;20164;-86
2023/07/02 04:44:30;;;;;;;4.40;3.78;;;22.30;54.10;;;;;;4801814;29;20183;-86
2023/07/02 04:46:58;;;;;;;4.57;4.10;;;22.40;54.10;;;;;;4816215;29;20221;-85
2023/07/02 04:49:25;;;;;;;4.50;4.10;;;22.30;54.10;;;;;;4786649;30;20644;-85
2023/07/02 04:51:53;;;;;;;4.22;3.83;;;22.30;54.10;;;;;;4801943;29;20254;-87
2023/07/02 04:54:20;;;;;;;4.20;3.80;;;22.30;54.10;;;;;;4787729;29;20531;-87
2023/07/02 04:56:50;;;;;;;4.32;3.92;;;22.30;54.10;;;;;;4801532;29;20252;-84
2023/07/02 04:59:16;;;;;;;4.10;3.70;;;22.30;54.10;;;;;;4801920;29;20290;-85
2023/07/02 05:01:43;;;;;;;4.10;3.70;;;22.40;54.10;;;;;;4819656;29;20636;-83
2023/07/02 05:04:11;;;;;;;4.18;3.78;;;22.30;54.10;;;;;;4804636;29;20179;-87
2023/07/02 05:06:37;;;;;;;4.45;4.05;;;22.30;54.20;;;;;;4819538;29;20195;-86
2023/07/02 05:09:06;;;;;;;4.50;4.10;;;22.30;54.20;;;;;;4804827;29;20235;-86
2023/07/02 05:11:32;;;;;;;4.05;3.65;;;22.30;54.20;;;;;;4819123;29;20271;-83
2023/07/02 05:13:58;;;;;;;4.28;3.88;;;22.30;54.20;;;;;;4819639;29;20217;-85
2023/07/02 05:16:28;;;;;;;4.50;3.92;;;22.20;54.20;;;;;;4819628;29;20254;-85
2023/07/02 05:18:54;;;;;;;4.25;3.78;;;22.30;54.20;;;;;;4803951;29;20222;-86
2023/07/02 05:21:20;;;;;;;4.32;3.92;;;22.30;54.20;;;;;;4819587;29;20635;-84
2023/07/02 05:23:46;;;;;;;4.43;4.03;;;22.30;54.30;;;;;;4790585;29;20228;-84
2023/07/02 05:26:12;;;;;;;4.10;3.70;;;22.30;54.30;;;;;;4789622;30;20203;-87
2023/07/02 05:28:38;;;;;;;3.80;3.50;;;22.30;54.30;;;;;;4790445;30;20164;-85
2023/07/02 05:31:04;;;;;;;4.15;3.75;;;22.30;54.30;;;;;;4804394;29;20219;-86
2023/07/02 05:33:32;;;;;;;4.13;3.72;;;22.30;54.30;;;;;;4819209;29;20239;-85
2023/07/02 05:36:01;;;;;;;4.38;3.97;;;22.30;54.30;;;;;;4790510;29;20654;-83
2023/07/02 05:38:32;;;;;;;4.30;3.90;;;22.30;54.30;;;;;;4818531;29;20208;-84
2023/07/02 05:40:57;;;;;;;4.10;3.70;;;22.20;54.30;;;;;;4803607;29;20235;-85
2023/07/02 05:43:23;;;;;;;4.10;3.70;;;22.30;54.40;;;;;;4804032;29;20206;-86
2023/07/02 05:45:54;;;;;;;5.70;4.20;;;22.30;54.30;;;;;;4804275;29;20176;-85
2023/07/02 05:48:20;;;;;;;3.88;3.58;;;22.30;54.30;;;;;;4803380;29;20189;-86
2023/07/02 05:50:46;;;;;;;4.68;4.00;;;22.20;54.30;;;;;;4789439;30;20267;-86
2023/07/02 05:53:12;;;;;;;4.20;3.80;;;22.30;54.40;;;;;;4818883;29;20164;-87
2023/07/02 05:55:42;;;;;;;3.92;3.53;;;22.20;54.40;;;;;;4789944;29;20164;-84
2023/07/02 05:58:08;;;;;;;4.97;4.15;;;22.30;54.40;;;;;;4803235;29;20241;-83
2023/07/02 06:00:35;;;;;;;4.50;4.10;;;22.20;54.40;;;;;;4789915;30;20159;-84
2023/07/02 06:03:01;;;;;;;4.10;3.70;;;22.20;54.40;;;;;;4803668;29;20270;-85
2023/07/02 06:05:26;;;;;;;4.95;3.90;;;22.30;54.40;;;;;;4804270;29;20204;-83
2023/07/02 06:07:52;;;;;;;4.65;4.20;;;22.30;54.40;;;;;;4803512;29;20247;-86
2023/07/02 06:10:18;;;;;;;4.50;4.10;;;22.30;54.40;;;;;;4818659;29;20164;-85
2023/07/02 06:12:48;;;;;;;4.10;3.70;;;22.30;54.40;;;;;;4818732;29;20152;-86
2023/07/02 06:15:18;;;;;;;4.03;3.63;;;22.30;54.40;;;;;;4817990;29;20198;-87
2023/07/02 06:17:44;;;;;;;4.60;4.18;;;22.30;54.40;;;;;;4818035;29;20203;-87
2023/07/02 06:20:10;;;;;;;4.57;4.18;;;22.30;54.40;;;;;;4818544;29;20172;-84
2023/07/02 06:22:36;;;;;;;4.50;4.10;;;22.30;54.40;;;;;;4788301;30;20194;-87
2023/07/02 06:25:06;;;;;;;4.13;3.72;;;22.30;54.40;;;;;;4818713;29;20164;-84
2023/07/02 06:27:32;;;;;;;4.22;3.83;;;22.30;54.40;;;;;;4817990;29;20222;-86
2023/07/02 06:29:58;;;;;;;3.85;3.45;;;22.30;54.40;;;;;;4803505;29;20168;-85
2023/07/02 06:32:24;;;;;;;4.18;3.78;;;22.30;54.40;;;;;;4803060;29;20230;-85
2023/07/02 06:34:50;;;;;;;4.53;4.10;;;22.20;54.40;;;;;;4803491;29;20302;-85
2023/07/02 06:37:16;;;;;;;4.70;4.20;;;22.30;54.50;;;;;;4803039;29;20206;-86
2023/07/02 06:39:42;;;;;;;4.10;3.70;;;22.30;54.50;;;;;;4803004;29;20639;-85
2023/07/02 06:42:08;;;;;;;4.10;3.70;;;22.30;55.00;;;;;;4818270;29;20202;-86
2023/07/02 06:44:34;;;;;;;3.60;3.30;;;22.40;55.80;;;;;;4789513;30;20600;-84
2023/07/02 06:47:00;;;;;;;3.83;3.50;;;22.30;56.20;;;;;;4802725;29;20206;-86
2023/07/02 06:49:26;;;;;;;3.90;3.50;;;22.20;56.90;;;;;;4818232;29;20640;-86
2023/07/02 06:51:52;;;;;;;3.72;3.40;;;22.20;57.20;;;;;;4788412;30;20175;-85
2023/07/02 06:54:18;;;;;;;3.63;3.33;;;22.10;58.40;;;;;;4788077;30;20220;-85
2023/07/02 06:56:44;;;;;;;3.50;3.20;;;22.10;57.90;;;;;;4788900;30;20529;-83
2023/07/02 06:59:10;;;;;;;3.40;3.10;;;22.00;58.40;;;;;;4789458;30;20197;-86
2023/07/02 07:01:36;;;;;;;3.63;3.03;;;22.00;58.70;;;;;;4818823;29;20531;-85
2023/07/02 07:04:03;;;;;;;3.63;3.33;;;21.90;59.00;;;;;;4788871;29;20168;-85
2023/07/02 07:06:29;;;;;;;3.42;3.13;;;21.90;59.20;;;;;;4817798;29;20199;-85
2023/07/02 07:08:55;;;;;;;3.40;3.10;;;21.90;59.30;;;;;;4788901;30;20750;-86
2023/07/02 07:11:21;;;;;;;3.17;2.83;;;21.80;59.60;;;;;;4802656;29;20286;-86
2023/07/02 07:13:51;;;;;;;3.42;3.13;;;21.80;59.80;;;;;;4817865;29;20531;-84
2023/07/02 07:16:17;;;;;;;3.30;3.00;;;21.70;59.90;;;;;;4817095;29;20206;-84
2023/07/02 07:18:44;;;;;;;3.42;3.13;;;21.80;60.20;;;;;;4817739;29;20264;-84
2023/07/02 07:21:10;;;;;;;3.38;3.08;;;21.70;60.40;;;;;;4817938;29;20179;-85
2023/07/02 07:23:36;;;;;;;3.17;2.88;;;21.70;60.70;;;;;;4817481;29;20294;-85
2023/07/02 07:26:02;;;;;;;3.50;3.20;;;21.70;61.00;;;;;;4817720;29;20289;-87
2023/07/02 07:28:28;;;;;;;3.40;3.10;;;21.70;61.20;;;;;;4817606;29;20167;-85
2023/07/02 07:30:53;;;;;;;3.20;2.90;;;21.70;61.40;;;;;;4820593;29;20670;-86
2023/07/02 07:33:19;;;;;;;3.30;3.00;;;21.60;61.40;;;;;;4820814;29;20190;-86
2023/07/02 07:35:50;;;;;;;3.22;2.92;;;21.60;61.60;;;;;;4820580;29;20171;-87
2023/07/02 07:38:19;;;;;;;3.50;3.20;;;21.60;61.80;;;;;;4804966;29;20193;-87
2023/07/02 07:40:49;;;;;;;2.95;2.70;;;21.60;61.80;;;;;;4819830;29;20193;-87
2023/07/02 07:43:15;;;;;;;3.60;3.28;;;21.60;62.10;;;;;;4820096;29;20197;-85
2023/07/02 07:45:41;;;;;;;3.40;3.10;;;21.60;62.20;;;;;;4820266;29;20163;-83
2023/07/02 07:48:07;;;;;;;3.53;3.22;;;21.60;62.30;;;;;;4820290;29;20171;-84
2023/07/02 07:50:33;;;;;;;3.55;3.25;;;21.60;62.40;;;;;;4790052;29;20198;-84
2023/07/02 07:52:59;;;;;;;3.42;3.13;;;21.60;62.60;;;;;;4804820;29;20206;-84
2023/07/02 07:55:25;;;;;;;3.05;2.85;;;21.50;62.60;;;;;;4805089;29;20181;-85
2023/07/02 07:57:51;;;;;;;3.22;2.92;;;21.50;62.70;;;;;;4806400;29;20228;-85
2023/07/02 08:00:17;;;;;;;3.40;3.10;;;21.50;63.00;;;;;;4806317;29;20167;-85
2023/07/02 08:02:45;;;;;;;3.25;2.95;;;21.50;63.10;;;;;;4820296;29;20690;-85
2023/07/02 08:05:11;;;;;;;3.17;2.88;;;21.50;63.10;;;;;;4820044;29;20192;-85
2023/07/02 08:07:36;;;;;;;3.10;2.80;;;21.50;63.40;;;;;;4805964;29;20201;-83
2023/07/02 08:10:02;;;;;;;3.30;2.97;;;21.50;63.50;;;;;;4805135;29;20178;-84
2023/07/02 08:12:29;;;;;;;3.30;3.00;;;21.50;63.70;;;;;;4819932;29;20171;-83
2023/07/02 08:14:56;;;;;;;3.10;2.80;;;21.50;64.00;;;;;;4820178;29;20171;-86
2023/07/02 08:17:22;;;;;;;3.50;3.20;;;21.50;64.40;;;;;;4820074;29;20182;-85
2023/07/02 08:19:48;;;;;;;3.38;3.08;;;21.50;64.50;;;;;;4804639;29;20179;-85
2023/07/02 08:22:14;;;;;;;3.47;3.17;;;21.50;64.70;;;;;;4806057;29;20186;-84
2023/07/02 08:24:40;;;;;;;3.03;2.75;;;21.50;65.10;;;;;;4819900;29;20164;-85
2023/07/02 08:27:06;;;;;;;3.30;3.00;;;21.40;65.20;;;;;;4819636;29;20630;-84
2023/07/02 08:29:32;;;;;;;3.50;3.20;;;21.40;65.60;;;;;;4819989;29;20166;-86
2023/07/02 08:31:58;;;;;;;3.05;2.75;;;21.40;65.90;;;;;;4805749;29;20698;-84
2023/07/02 08:34:24;;;;;;;3.28;2.97;;;21.40;66.10;;;;;;4805960;29;20661;-83
2023/07/02 08:36:51;;;;;;;3.25;2.95;;;21.40;66.70;;;;;;4823197;29;20179;-82
2023/07/02 08:39:17;;;;;;;3.28;2.97;;;21.40;66.80;;;;;;4809267;29;20158;-84
2023/07/02 08:41:45;;;;;;;2.88;2.67;;;21.30;67.00;;;;;;4809251;29;20553;-87
2023/07/02 08:44:13;;;;;;;3.20;2.90;;;21.40;67.20;;;;;;4792958;29;20175;-86
2023/07/02 08:46:40;;;;;;;3.58;3.28;;;21.30;67.40;;;;;;4807875;29;20634;-85
2023/07/02 08:49:07;;;;;;;3.35;3.05;;;21.30;67.80;;;;;;4807896;29;20363;-85
2023/07/02 08:51:33;;;;;;;3.33;3.03;;;21.20;67.90;;;;;;4809063;29;20203;-85
2023/07/02 08:53:59;;;;;;;3.30;2.95;;;21.20;68.10;;;;;;4822817;29;20198;-88
2023/07/02 08:56:26;;;;;;;3.45;3.15;;;21.20;68.30;;;;;;4823096;29;20178;-88
2023/07/02 08:58:52;;;;;;;3.40;3.10;;;21.30;68.50;;;;;;4822582;29;20163;-86
2023/07/02 09:01:18;;;;;;;3.30;2.97;;;21.20;68.80;;;;;;4808996;29;20543;-87
2023/07/02 09:03:44;;;;;;;3.50;3.20;;;21.20;69.10;;;;;;4793019;29;20193;-86
2023/07/02 09:06:11;;;;;;;3.20;2.90;;;21.20;69.20;;;;;;4792443;29;20211;-85
2023/07/02 09:08:37;;;;;;;3.28;2.97;;;21.20;69.40;;;;;;4807738;29;20239;-84
2023/07/02 09:11:09;;;;;;;3.20;2.90;;;21.10;69.30;;;;;;4822672;29;20544;-84
2023/07/02 09:13:47;;;;;;;3.38;3.00;;;21.20;69.50;;;;;;4807802;29;20169;-85
2023/07/02 09:16:22;;;;;;;3.25;2.95;;;21.20;69.60;;;;;;4807368;29;20655;-87
2023/07/02 09:19:02;;;;;;;3.30;3.00;;;21.20;69.80;;;;;;4822528;29;20185;-87
2023/07/02 09:21:40;;;;;;;3.20;2.90;;;21.10;69.90;;;;;;4822318;29;20591;-87
2023/07/02 09:24:22;;;;;;;3.60;3.30;;;21.20;70.10;;;;;;4822240;29;20538;-88
2023/07/02 09:26:51;;;;;;;3.42;3.13;;;21.10;70.40;;;;;;4807057;29;20579;-85
2023/07/02 09:29:21;;;;;;;3.20;2.90;;;21.20;70.40;;;;;;4807106;29;20667;-84
2023/07/02 09:31:48;;;;;;;3.35;3.05;;;21.10;70.60;;;;;;4803964;29;20231;-84
2023/07/02 09:34:14;;;;;;;3.42;3.00;;;21.10;70.80;;;;;;4804146;29;20171;-84
2023/07/02 09:36:44;;;;;;;3.35;3.05;;;21.10;70.80;;;;;;4789032;30;20180;-85
2023/07/02 09:39:14;;;;;;;3.53;3.22;;;21.20;70.90;;;;;;4818503;29;20203;-86
2023/07/02 09:41:43;;;;;;;3.28;2.97;;;21.10;71.10;;;;;;4819145;29;20172;-84
2023/07/02 09:44:09;;;;;;;3.08;2.78;;;21.10;71.30;;;;;;4819234;29;20202;-86
2023/07/02 09:46:37;;;;;;;3.25;2.95;;;21.20;71.40;;;;;;4788804;30;20585;-83
2023/07/02 09:49:03;;;;;;;4.05;3.42;;;21.20;71.40;;;;;;4819087;29;20180;-85
2023/07/02 09:51:29;;;;;;;3.33;2.97;;;21.20;71.40;;;;;;4790099;29;20163;-83
2023/07/02 09:53:55;;;;;;;3.20;2.90;;;21.20;71.30;;;;;;4803963;29;20176;-84
2023/07/02 09:56:21;;;;;;;3.40;3.10;;;21.20;71.50;;;;;;4819446;29;20168;-83
2023/07/02 09:58:47;;;;;;;3.28;2.97;;;21.20;72.70;;;;;;4789956;29;20168;-86
2023/07/02 10:01:13;;;;;;;3.15;2.85;;;21.20;72.10;;;;;;4789863;29;20167;-85
2023/07/02 10:03:39;;;;;;;3.40;3.10;;;21.10;72.10;;;;;;4803611;29;20266;-83
2023/07/02 10:06:06;;;;;;;3.40;3.10;;;21.20;72.50;;;;;;4788736;30;20226;-84
2023/07/02 10:08:32;;;;;;;3.35;3.05;;;21.20;72.70;;;;;;4819218;29;20166;-84
2023/07/02 10:11:12;;;;;;;3.50;3.20;;;21.20;72.90;;;;;;4803461;29;20181;-84
2023/07/02 10:13:39;;;;;;;3.40;3.10;;;21.20;73.00;;;;;;4818389;29;20160;-84
2023/07/02 10:16:05;;;;;;;3.30;3.00;;;21.20;73.20;;;;;;4803963;29;20183;-84
2023/07/02 10:18:31;;;;;;;3.25;2.95;;;21.20;73.20;;;;;;4818522;29;20647;-86
2023/07/02 10:20:57;;;;;;;3.15;2.90;;;21.20;73.20;;;;;;4818556;29;20171;-83
2023/07/02 10:23:38;;;;;;;3.20;2.78;;;21.30;73.30;;;;;;4789501;29;20552;-85
2023/07/02 10:26:19;;;;;;;3.20;2.83;;;21.30;73.40;;;;;;4803253;29;20199;-85
2023/07/02 10:29:00;;;;;;;3.30;3.00;;;21.20;73.40;;;;;;4818504;29;20174;-84
2023/07/02 10:31:26;;;;;;;2.92;2.72;;;21.30;73.70;;;;;;4818196;29;20219;-84
2023/07/02 10:33:52;;;;;;;3.30;3.00;;;21.30;73.70;;;;;;4818488;29;20252;-84
2023/07/02 10:36:21;;;;;;;3.15;2.80;;;21.30;73.80;;;;;;4818281;29;20178;-85
2023/07/02 10:38:47;;;;;;;3.30;3.00;;;21.30;74.00;;;;;;4818187;29;20183;-84
2023/07/02 10:41:25;;;;;;;3.53;3.20;;;21.30;74.00;;;;;;4818218;29;20381;-84
2023/07/02 10:43:51;;;;;;;3.28;2.97;;;21.30;74.10;;;;;;4803466;29;20236;-85
2023/07/02 10:46:24;;;;;;;3.30;3.00;;;21.30;74.10;;;;;;4788009;30;20298;-86
2023/07/02 10:48:52;;;;;;;3.40;3.10;;;21.30;74.20;;;;;;4803117;29;20172;-85
2023/07/02 10:51:18;;;;;;;3.30;3.00;;;21.30;74.30;;;;;;4788938;29;20164;-86
2023/07/02 10:53:44;;;;;;;3.33;3.03;;;21.30;74.30;;;;;;4818126;29;20164;-84
2023/07/02 10:56:16;;;;;;;3.45;3.15;;;21.30;74.30;;;;;;4817469;29;20639;-84
2023/07/02 10:58:43;;;;;;;3.17;2.80;;;21.30;74.50;;;;;;4803164;29;20183;-84
2023/07/02 11:01:09;;;;;;;3.00;2.80;;;21.30;74.60;;;;;;4817633;29;20209;-87
2023/07/02 11:03:35;;;;;;;3.25;2.95;;;21.20;74.80;;;;;;4788824;29;20175;-86
2023/07/02 11:06:01;;;;;;;3.15;2.85;;;21.20;74.90;;;;;;4817722;29;20168;-86
2023/07/02 11:08:41;;;;;;;3.50;3.20;;;21.30;75.10;;;;;;4788767;29;20167;-83
2023/07/02 11:11:07;;;;;;;2.72;2.53;;;21.20;75.20;;;;;;4817934;29;20544;-86
2023/07/02 11:13:33;;;;;;;3.25;2.97;;;21.20;75.30;;;;;;4817670;29;20213;-84
2023/07/02 11:15:59;;;;;;;3.28;2.97;;;21.20;75.50;;;;;;4802894;29;20171;-84
2023/07/02 11:18:30;;;;;;;3.20;2.90;;;21.20;75.70;;;;;;4788697;29;20171;-85
2023/07/02 11:20:56;;;;;;;3.20;2.90;;;21.20;75.80;;;;;;4817674;29;20193;-86
2023/07/02 11:23:23;;;;;;;3.40;3.10;;;21.20;75.80;;;;;;4802406;29;20176;-84
2023/07/02 11:26:02;;;;;;;3.38;3.08;;;21.10;75.80;;;;;;4788409;29;20174;-87
2023/07/02 11:28:29;;;;;;;3.15;2.85;;;21.20;76.00;;;;;;4817608;29;20206;-85
2023/07/02 11:30:55;;;;;;;2.88;2.67;;;21.10;76.00;;;;;;4818153;29;20578;-86
2023/07/02 11:33:36;;;;;;;3.55;3.25;;;21.20;76.20;;;;;;4820475;29;20168;-85
2023/07/02 11:36:03;;;;;;;3.33;3.03;;;21.20;76.30;;;;;;4820546;29;20250;-85
2023/07/02 11:38:34;;;;;;;3.40;3.10;;;21.20;76.50;;;;;;4790116;29;20175;-86
2023/07/02 11:41:00;;;;;;;2.97;2.78;;;21.10;76.50;;;;;;4804522;29;20197;-84
2023/07/02 11:43:26;;;;;;;2.85;2.65;;;21.20;76.60;;;;;;4806164;29;20155;-84
2023/07/02 11:45:52;;;;;;;3.10;2.80;;;21.10;76.50;;;;;;4820415;29;20176;-85
2023/07/02 11:48:18;;;;;;;3.17;2.88;;;21.20;76.60;;;;;;4806214;29;20167;-86
2023/07/02 11:50:44;;;;;;;3.35;3.05;;;21.20;76.60;;;;;;4790053;29;20174;-87
2023/07/02 11:53:10;;;;;;;3.40;3.10;;;21.20;76.50;;;;;;4806066;29;20246;-84
2023/07/02 11:55:37;;;;;;;3.15;2.85;;;21.20;76.60;;;;;;4820275;29;20169;-86
2023/07/02 11:58:03;;;;;;;3.13;2.83;;;21.20;76.60;;;;;;4806139;29;20166;-85
2023/07/02 12:00:29;;;;;;;3.28;2.97;;;21.20;76.70;;;;;;4804810;29;20170;-84
2023/07/02 12:02:55;;;;;;;3.25;2.95;;;21.20;76.80;;;;;;4820211;29;20189;-86
2023/07/02 12:05:21;;;;;;;3.10;2.80;;;21.10;76.70;;;;;;4806232;29;20253;-87
2023/07/02 12:07:47;;;;;;;3.33;3.00;;;21.20;77.00;;;;;;4805609;29;20290;-85
2023/07/02 12:10:13;;;;;;;3.30;3.00;;;21.20;76.90;;;;;;4823772;29;20171;-83
2023/07/02 12:12:39;;;;;;;3.03;2.72;;;21.20;77.00;;;;;;4823595;29;20170;-86
2023/07/02 12:15:05;;;;;;;2.95;2.72;;;21.20;77.00;;;;;;4809688;29;20155;-85
2023/07/02 12:17:31;;;;;;;3.20;2.90;;;21.20;77.00;;;;;;4809717;29;20170;-87
2023/07/02 12:19:57;;;;;;;2.85;2.65;;;21.20;77.00;;;;;;4823791;29;20174;-85
2023/07/02 12:22:23;;;;;;;2.97;2.70;;;21.20;77.10;;;;;;4809579;29;20631;-86
2023/07/02 12:24:50;;;;;;;3.03;2.83;;;21.20;77.20;;;;;;4809626;29;20167;-84
2023/07/02 12:27:16;;;;;;;3.30;3.00;;;21.10;77.10;;;;;;4809392;29;20213;-85
2023/07/02 12:29:42;;;;;;;3.22;2.95;;;21.20;77.10;;;;;;4823422;29;20182;-85
2023/07/02 12:32:08;;;;;;;2.90;2.70;;;21.20;77.20;;;;;;4820064;29;20230;-86
2023/07/02 12:34:34;;;;;;;2.97;2.70;;;21.20;77.20;;;;;;4791409;29;20172;-84
2023/07/02 12:37:00;;;;;;;3.20;2.90;;;21.20;77.20;;;;;;4790085;30;20184;-83
2023/07/02 12:39:26;;;;;;;2.92;2.72;;;21.20;77.20;;;;;;4805091;29;20543;-84
2023/07/02 12:41:52;;;;;;;3.40;3.10;;;21.20;77.30;;;;;;4791240;29;20190;-84
2023/07/02 12:44:18;;;;;;;2.95;2.65;;;21.20;77.40;;;;;;4820122;29;20624;-85
2023/07/02 12:46:44;;;;;;;3.00;2.70;;;21.10;77.40;;;;;;4791138;29;20199;-84